Estació municipal de Susqueda - Veïnat del Coll (La Selva, )

Consulta les dades en temps real de l'estació municipal de Susqueda - Veïnat del Coll





Hora UTC 09:15
Temperatura 28.1 ºC
Humitat 39.5 %
Pressió 1025.5 hPa
Pluja 0.0 mm
Velocitat vent 1.0 km/h
Direcció vent E
Radiació solar 625.1 W/m²

Dades diàries 2026-09-06



Hora UTC (hivern +1h; estiu +2h)
Temperatura (ºC) Humitat (%) Pressió (hPa) Velocitat vent (km/h) Precipitació (mm) Radiació solar (W/m²)
Hora UTC Aire Humitat Pressió Vel. Dir. Vel. Max Dir. Intent. màx 5 min. Rad. Sol.
00:05 24.1 49.9 1025.3 7.1 SSW 7.1 SSW 0.0 0.1
00:10 24.1 49.7 1025.3 6.4 SW 13.1 SW 0.0 0.1
00:15 24.1 49.4 1025.3 6.9 SW 14.8 WSW 0.0 0.1
00:20 24.1 49.6 1025.3 6.1 SW 14.1 SSW 0.0 0.1
00:25 24.0 49.7 1025.3 5.7 SW 14.5 SW 0.0 0.1
00:30 24.1 49.7 1025.3 6.6 SW 13.1 SW 0.0 0.1
00:35 24.1 49.5 1025.2 5.8 SW 12.4 SSW 0.0 0.1
00:40 24.1 49.4 1025.2 5.7 SW 20.5 S 0.0 0.1
00:45 24.1 49.4 1025.1 6.3 SW 13.8 WSW 0.0 0.1
00:50 24.0 49.5 1025.1 6.5 SW 12.7 WSW 0.0 0.1
00:55 24.0 49.6 1025.1 5.6 SW 12.0 SW 0.0 0.1
01:00 23.9 49.7 1025.1 7.0 SW 17.6 SSW 0.0 0.1
01:05 24.0 49.3 1025.0 7.9 SW 14.1 SSW 0.0 0.1
01:10 24.0 49.4 1025.0 8.4 SW 20.1 SSW 0.0 0.1
01:15 24.0 49.5 1025.0 6.5 SW 15.2 S 0.0 0.1
01:20 24.1 49.3 1025.0 7.1 SW 17.3 SW 0.0 0.1
01:25 24.1 48.9 1024.9 8.5 SW 19.4 SW 0.0 0.1
01:30 24.0 49.2 1024.9 7.7 SW 19.1 SW 0.0 0.1
01:35 24.0 49.2 1024.9 7.8 SW 17.6 SSW 0.0 0.1
01:40 24.0 49.6 1024.9 7.7 SW 20.5 SSW 0.0 0.1
01:45 24.1 49.7 1025.0 7.8 SW 14.8 SSW 0.0 0.1
01:50 24.1 50.1 1025.0 7.8 SW 15.5 W 0.0 0.1
01:55 24.1 49.9 1024.9 6.8 SW 15.2 W 0.0 0.1
02:00 24.0 50.1 1024.9 6.0 SW 13.1 SW 0.0 0.1
02:05 24.0 50.3 1024.9 6.1 SW 14.1 SW 0.0 0.1
02:10 24.0 50.3 1024.9 5.4 SW 14.5 W 0.0 0.1
02:15 24.0 50.4 1024.9 6.3 SW 15.2 W 0.0 0.1
02:20 23.9 50.8 1024.9 5.3 SW 14.8 SSW 0.0 0.1
02:25 23.7 51.4 1024.8 5.2 SW 11.3 WSW 0.0 0.1
02:30 23.7 51.2 1024.8 5.9 SW 16.9 W 0.0 0.1
02:35 23.8 51.1 1024.8 6.2 WSW 13.1 W 0.0 0.1
02:40 23.8 51.0 1024.8 5.3 WSW 13.4 WSW 0.0 0.1
02:45 23.7 50.7 1024.8 6.5 SW 15.2 SW 0.0 0.1
02:50 23.8 50.2 1024.8 6.6 SW 14.8 SW 0.0 0.1
02:55 23.9 50.0 1024.7 5.8 SW 13.1 SSW 0.0 0.1
03:00 24.0 49.7 1024.7 6.4 SW 18.0 W 0.0 0.1
03:05 23.9 49.9 1024.7 6.7 SW 14.5 SSE 0.0 0.1
03:10 23.9 49.9 1024.7 6.6 SW 17.6 WSW 0.0 0.1
03:15 24.1 49.4 1024.7 6.3 SW 15.2 SSW 0.0 0.1
03:20 24.3 48.9 1024.7 6.5 SW 15.2 SW 0.0 0.1
03:25 24.3 48.7 1024.7 6.1 SW 16.9 SW 0.0 0.1
03:30 24.4 48.5 1024.7 6.5 SW 15.5 S 0.0 0.1
03:35 24.4 48.0 1024.6 5.9 SW 13.8 WSW 0.0 0.1
03:40 24.6 47.7 1024.6 5.5 SW 14.1 SSW 0.0 0.1
03:45 24.6 47.7 1024.6 4.7 SW 12.4 SW 0.0 0.1
03:50 24.6 47.7 1024.6 5.0 SW 17.6 SW 0.0 0.1
03:55 24.6 47.6 1024.5 5.0 SW 11.3 SSE 0.0 0.1
04:00 24.7 47.3 1024.5 5.1 SSW 12.7 S 0.0 0.1
04:05 24.7 47.3 1024.5 4.3 SW 12.0 WNW 0.0 0.1
04:10 24.6 47.5 1024.5 4.2 SW 14.5 SW 0.0 0.1
04:15 24.6 47.4 1024.4 5.1 SW 15.9 SSW 0.0 0.1
04:20 24.6 47.5 1024.4 6.2 SSW 14.5 SW 0.0 0.1
04:25 24.6 47.7 1024.4 5.8 SSW 14.5 SW 0.0 0.1
04:30 24.4 48.2 1024.4 4.5 SW 13.8 S 0.0 0.1
04:35 24.4 48.5 1024.4 4.6 SSW 13.8 SSW 0.0 0.1
04:40 24.3 48.8 1024.4 5.1 SW 14.5 SSW 0.0 0.1
04:45 24.3 48.5 1024.3 4.6 SW 11.3 SW 0.0 0.1
04:50 24.4 48.3 1024.3 4.7 SSW 11.3 SW 0.0 0.1
04:55 24.3 48.3 1024.3 3.6 SW 10.2 WNW 0.0 0.2
05:00 24.1 48.5 1024.3 2.9 SW 11.6 SW 0.0 0.2
05:05 24.2 48.0 1024.3 3.9 SW 10.6 W 0.0 0.5
05:10 24.1 48.5 1024.3 3.7 SSW 10.6 WSW 0.0 1.1
05:15 24.0 49.3 1024.4 4.2 SW 11.6 S 0.0 2.5
05:20 23.9 50.0 1024.4 4.0 SSW 9.2 W 0.0 4.2
05:25 23.8 50.3 1024.5 3.6 SSW 10.9 SSW 0.0 6.9
05:30 23.7 50.6 1024.5 4.3 SSW 8.8 SSW 0.0 11.1
05:35 23.7 50.6 1024.5 4.5 SSW 10.6 SW 0.0 16.8
05:40 23.8 50.3 1024.5 4.6 SSW 10.9 SW 0.0 24.1
05:45 23.8 50.6 1024.6 5.1 SSW 11.3 S 0.0 32.9
05:50 24.0 50.5 1024.6 4.6 SSW 12.0 SSW 0.0 43.0
05:55 24.1 50.4 1024.6 3.8 SSW 10.9 SSW 0.0 53.8
06:00 24.2 50.2 1024.6 4.6 SSW 12.0 SSW 0.0 65.6
06:05 24.4 50.0 1024.6 4.0 SSW 9.9 SSW 0.0 78.1
06:10 24.6 49.6 1024.6 5.0 SSW 11.3 SSW 0.0 91.2
06:15 24.7 49.2 1024.7 4.6 S 9.5 SSW 0.0 104.7
06:20 24.9 48.8 1024.7 3.7 S 7.4 SSW 0.0 118.0
06:25 25.1 47.6 1024.8 3.1 SSW 6.7 S 0.0 131.7
06:30 25.3 46.3 1024.8 3.6 SSW 7.8 S 0.0 145.6
06:35 25.5 45.8 1024.9 3.2 SSW 7.4 S 0.0 159.5
06:40 25.6 45.5 1024.9 3.9 SW 9.2 SSW 0.0 176.1
06:45 25.7 45.6 1024.9 4.1 SSW 9.5 SW 0.0 191.8
06:50 25.8 45.7 1024.9 4.3 SSW 12.4 WSW 0.0 207.6
06:55 25.9 45.8 1024.9 4.7 SSW 10.6 S 0.0 224.4
07:00 26.0 45.8 1024.9 4.4 SW 9.5 SW 0.0 241.4
07:05 26.2 45.5 1024.9 3.5 WSW 8.5 SSW 0.0 258.9
07:10 26.1 45.4 1024.9 3.5 SW 8.1 WSW 0.0 270.9
07:15 26.2 45.5 1025.0 2.0 SW 9.2 SSW 0.0 285.8
07:20 26.4 44.9 1025.0 2.0 WSW 6.0 W 0.0 307.1
07:25 26.7 44.5 1025.0 3.0 SW 8.8 S 0.0 325.2
07:30 26.8 43.6 1025.0 3.6 SW 10.6 SSW 0.0 342.2
07:35 26.9 43.0 1025.0 3.3 SW 8.8 SSW 0.0 359.2
07:40 27.0 42.2 1025.0 3.5 SW 9.5 SSW 0.0 375.1
07:45 26.9 41.6 1025.0 4.1 WSW 9.5 S 0.0 392.1
07:50 27.0 40.9 1025.0 4.2 SW 8.8 WSW 0.0 408.6
07:55 27.2 39.6 1025.0 2.9 W 7.8 W 0.0 424.0
08:00 27.3 39.3 1025.0 2.8 WSW 8.5 SE 0.0 435.5
08:05 27.6 37.4 1025.1 3.0 WSW 8.1 W 0.0 449.7
08:10 27.8 38.5 1025.1 1.5 NNE 6.0 WNW 0.0 464.0
08:15 28.1 35.3 1025.1 2.6 W 7.1 WSW 0.0 474.1
08:20 28.2 36.1 1025.1 2.5 N 6.4 N 0.0 490.3
08:25 28.2 36.4 1025.1 2.2 W 8.1 W 0.0 502.1
08:30 28.3 38.0 1025.1 1.5 N 5.3 NNW 0.0 515.1
08:35 28.6 36.4 1025.2 1.7 NW 6.0 WSW 0.0 527.1
08:40 28.5 37.1 1025.2 2.3 NW 8.1 NNW 0.0 541.2
08:45 28.7 37.0 1025.3 2.3 NW 6.7 NNW 0.0 554.8
08:50 28.7 36.3 1025.3 3.8 NW 8.8 NW 0.0 566.2
08:55 28.5 37.6 1025.4 2.6 N 8.1 NNW 0.0 578.1
09:00 28.3 39.4 1025.4 1.5 ENE 4.9 ENE 0.0 590.8
09:05 28.0 39.9 1025.4 1.3 E 4.9 S 0.0 602.8
09:10 28.1 39.7 1025.4 2.0 E 4.6 NE 0.0 613.6
09:15 28.1 39.5 1025.5 1.0 E 3.5 E 0.0 625.1
Màxima 28.7 51.4 1025.5 8.5 SW 20.5 SSW 0.0 625.1
Mínima 20 35.3 1024.3
Total 0.0